createdAt,value
2022-12-11T00:00:08.846Z,-0.79
2022-12-11T00:02:35.573Z,-0.95
2022-12-11T00:05:02.194Z,-0.99
2022-12-11T00:07:29.261Z,-1.00
2022-12-11T00:09:55.868Z,-0.99
2022-12-11T00:12:22.620Z,-1.17
2022-12-11T00:14:49.253Z,-1.09
2022-12-11T00:17:15.823Z,-1.46
2022-12-11T00:19:42.341Z,-1.73
2022-12-11T00:22:08.858Z,-1.37
2022-12-11T00:24:35.428Z,-1.35
2022-12-11T00:27:02.067Z,-1.81
2022-12-11T00:29:28.604Z,-1.96
2022-12-11T00:31:55.271Z,-2.05
2022-12-11T00:34:22.033Z,-1.88
2022-12-11T00:36:48.549Z,-1.92
2022-12-11T00:39:15.183Z,-2.10
2022-12-11T00:41:41.742Z,-2.43
2022-12-11T00:44:08.394Z,-2.53
2022-12-11T00:46:34.995Z,-2.55
2022-12-11T00:49:01.552Z,-2.57
2022-12-11T00:51:28.205Z,-2.77
2022-12-11T00:53:54.722Z,-2.72
2022-12-11T00:56:22.378Z,-2.26
2022-12-11T00:58:49.661Z,-2.44
2022-12-11T01:01:19.991Z,-2.40
2022-12-11T01:03:47.154Z,-2.87
2022-12-11T01:06:21.198Z,-2.25
2022-12-11T01:08:48.645Z,-2.48
2022-12-11T01:11:17.265Z,-2.62
2022-12-11T01:13:44.261Z,-2.70
2022-12-11T01:16:13.825Z,-2.59
2022-12-11T01:18:40.783Z,-2.59
2022-12-11T01:21:12.892Z,-2.46
2022-12-11T01:23:40.360Z,-2.29
2022-12-11T01:26:09.309Z,-2.68
2022-12-11T01:28:36.201Z,-2.77
2022-12-11T01:31:02.929Z,-2.94
2022-12-11T01:33:29.652Z,-2.98
2022-12-11T01:35:56.303Z,-2.60
2022-12-11T01:38:22.897Z,-2.79
2022-12-11T01:40:51.512Z,-3.03
2022-12-11T01:43:18.783Z,-3.37
2022-12-11T01:45:48.397Z,-3.59
2022-12-11T01:48:21.874Z,-3.68
2022-12-11T01:50:53.551Z,-3.69
2022-12-11T01:53:25.207Z,-4.04
2022-12-11T01:55:55.201Z,-3.84
2022-12-11T01:58:24.914Z,-3.97
2022-12-11T02:00:52.761Z,-4.23
2022-12-11T02:03:20.034Z,-4.29
2022-12-11T02:05:46.612Z,-4.69
2022-12-11T02:08:13.363Z,-4.68
2022-12-11T02:11:10.495Z,-4.82
2022-12-11T02:14:02.458Z,-4.75
2022-12-11T02:16:38.714Z,-5.09
2022-12-11T02:19:13.051Z,-5.25
2022-12-11T02:21:43.613Z,-5.44
2022-12-11T02:24:32.480Z,-5.39
2022-12-11T02:27:01.644Z,-5.35
2022-12-11T02:29:52.944Z,-5.67
2022-12-11T02:32:53.568Z,-5.84
2022-12-11T02:35:30.698Z,-5.73
2022-12-11T02:38:05.645Z,-5.56
2022-12-11T02:40:37.036Z,-5.61
2022-12-11T02:43:07.867Z,-5.68
2022-12-11T02:45:35.615Z,-5.67
2022-12-11T02:48:06.002Z,-5.84
2022-12-11T02:50:36.149Z,-5.91
2022-12-11T02:53:04.827Z,-5.91
2022-12-11T02:55:33.693Z,-6.09
2022-12-11T02:58:05.708Z,-5.94
2022-12-11T03:00:32.435Z,-5.94
2022-12-11T03:02:59.226Z,-5.75
2022-12-11T03:05:27.257Z,-5.73
2022-12-11T03:07:54.148Z,-6.02
2022-12-11T03:10:21.034Z,-6.04
2022-12-11T03:12:53.811Z,-5.99
2022-12-11T03:15:24.032Z,-6.26
2022-12-11T03:18:15.626Z,-6.33
2022-12-11T03:20:51.122Z,-6.39
2022-12-11T03:23:32.725Z,-6.39
2022-12-11T03:26:20.106Z,-6.49
2022-12-11T03:28:58.471Z,-6.61
2022-12-11T03:31:41.454Z,-6.42
2022-12-11T03:34:19.826Z,-6.74
2022-12-11T03:36:50.092Z,-6.97
2022-12-11T03:39:26.805Z,-6.98
2022-12-11T03:41:55.866Z,-6.84
2022-12-11T03:44:24.051Z,-6.90
2022-12-11T03:46:53.907Z,-6.84
2022-12-11T03:49:26.611Z,-6.92
2022-12-11T03:51:56.907Z,-6.89
2022-12-11T03:54:24.895Z,-7.14
2022-12-11T03:56:55.926Z,-7.09
2022-12-11T03:59:22.514Z,-7.10
2022-12-11T04:01:49.158Z,-7.06
2022-12-11T04:04:15.774Z,-7.26
2022-12-11T04:06:42.516Z,-7.36
2022-12-11T04:09:09.114Z,-7.24
2022-12-11T04:11:35.694Z,-7.24
2022-12-11T04:14:30.337Z,-7.26
2022-12-11T04:16:58.822Z,-7.35
2022-12-11T04:19:44.866Z,-7.27
2022-12-11T04:22:31.480Z,-7.05
2022-12-11T04:24:58.144Z,-6.95
2022-12-11T04:27:44.062Z,-6.79
2022-12-11T04:30:15.316Z,-7.16
2022-12-11T04:32:41.961Z,-7.39
2022-12-11T04:35:10.442Z,-7.24
2022-12-11T04:37:37.505Z,-7.15
2022-12-11T04:40:06.604Z,-7.40
2022-12-11T04:42:33.904Z,-7.72
2022-12-11T04:45:00.449Z,-7.63
2022-12-11T04:47:27.645Z,-7.72
2022-12-11T04:49:54.354Z,-7.69
2022-12-11T04:52:20.874Z,-7.87
2022-12-11T04:54:47.861Z,-7.82
2022-12-11T04:57:14.563Z,-7.63
2022-12-11T04:59:41.067Z,-7.63
2022-12-11T05:02:07.827Z,-7.67
2022-12-11T05:04:35.597Z,-7.78
2022-12-11T05:07:02.200Z,-7.78
2022-12-11T05:09:28.750Z,-7.65
2022-12-11T05:11:55.857Z,-7.68
2022-12-11T05:14:22.426Z,-7.89
2022-12-11T05:16:49.173Z,-7.68
2022-12-11T05:19:16.914Z,-7.70
2022-12-11T05:21:43.505Z,-7.43
2022-12-11T05:24:10.163Z,-7.69
2022-12-11T05:26:36.923Z,-7.84
2022-12-11T05:29:03.678Z,-8.00
2022-12-11T05:31:30.326Z,-7.88
2022-12-11T05:33:56.986Z,-8.12
2022-12-11T05:36:25.977Z,-8.07
2022-12-11T05:38:53.240Z,-8.03
2022-12-11T05:41:24.552Z,-7.93
2022-12-11T05:43:51.603Z,-8.00
2022-12-11T05:46:20.816Z,-7.86
2022-12-11T05:48:50.931Z,-8.08
2022-12-11T05:51:18.396Z,-7.79
2022-12-11T05:53:46.774Z,-7.99
2022-12-11T05:56:17.130Z,-7.90
2022-12-11T05:58:45.080Z,-7.99
2022-12-11T06:01:17.921Z,-7.95
2022-12-11T06:03:44.773Z,-8.00
2022-12-11T06:06:11.407Z,-8.23
2022-12-11T06:08:38.456Z,-8.10
2022-12-11T06:11:05.837Z,-8.29
2022-12-11T06:13:32.500Z,-8.25
2022-12-11T06:16:04.172Z,-8.13
2022-12-11T06:18:31.172Z,-8.11
2022-12-11T06:20:58.073Z,-8.12
2022-12-11T06:23:24.889Z,-7.93
2022-12-11T06:25:51.401Z,-8.08
2022-12-11T06:28:17.934Z,-8.10
2022-12-11T06:30:45.216Z,-8.32
2022-12-11T06:33:11.795Z,-8.42
2022-12-11T06:35:41.980Z,-8.22
2022-12-11T06:38:10.888Z,-8.27
2022-12-11T06:40:38.243Z,-8.48
2022-12-11T06:43:05.081Z,-8.59
2022-12-11T06:45:31.853Z,-8.41
2022-12-11T06:47:59.253Z,-8.48
2022-12-11T06:50:26.501Z,-8.30
2022-12-11T06:52:53.252Z,-8.49
2022-12-11T06:55:19.798Z,-8.47
2022-12-11T06:57:46.377Z,-8.44
2022-12-11T07:00:13.962Z,-8.34
2022-12-11T07:02:40.713Z,-8.39
2022-12-11T07:05:07.793Z,-8.31
2022-12-11T07:07:34.894Z,-8.28
2022-12-11T07:10:07.699Z,-8.44
2022-12-11T07:12:35.197Z,-8.40
2022-12-11T07:15:01.772Z,-8.16
2022-12-11T07:17:29.941Z,-8.24
2022-12-11T07:19:56.911Z,-8.18
2022-12-11T07:22:23.508Z,-8.38
2022-12-11T07:24:50.312Z,-8.39
2022-12-11T07:27:16.963Z,-8.21
2022-12-11T07:29:43.578Z,-8.17
2022-12-11T07:32:10.686Z,-8.23
2022-12-11T07:34:37.589Z,-8.23
2022-12-11T07:37:04.390Z,-8.30
2022-12-11T07:39:30.941Z,-8.11
2022-12-11T07:41:57.534Z,-8.30
2022-12-11T07:44:24.136Z,-8.16
2022-12-11T07:46:50.673Z,-8.37
2022-12-11T07:49:17.277Z,-8.52
2022-12-11T07:51:43.946Z,-8.16
2022-12-11T07:54:16.697Z,-8.11
2022-12-11T07:56:47.417Z,-8.02
2022-12-11T07:59:16.986Z,-7.91
2022-12-11T08:01:43.832Z,-7.92
2022-12-11T08:04:12.038Z,-7.73
2022-12-11T08:06:40.099Z,-8.00
2022-12-11T08:09:11.922Z,-7.57
2022-12-11T08:11:40.281Z,-7.58
2022-12-11T08:14:08.708Z,-7.70
2022-12-11T08:16:35.398Z,-7.65
2022-12-11T08:19:02.014Z,-7.32
2022-12-11T08:21:29.463Z,-7.25
2022-12-11T08:23:56.529Z,-7.25
2022-12-11T08:26:28.993Z,-7.32
2022-12-11T08:28:56.496Z,-7.13
2022-12-11T08:31:23.765Z,-7.17
2022-12-11T08:33:51.781Z,-7.31
2022-12-11T08:36:23.102Z,-7.37
2022-12-11T08:38:50.827Z,-7.19
2022-12-11T08:41:21.792Z,-6.73
2022-12-11T08:43:48.494Z,-6.89
2022-12-11T08:46:16.007Z,-6.72
2022-12-11T08:48:43.561Z,-6.75
2022-12-11T08:51:16.408Z,-6.36
2022-12-11T08:53:43.168Z,-6.44
2022-12-11T08:56:15.379Z,-6.27
2022-12-11T08:58:42.786Z,-5.87
2022-12-11T09:01:12.314Z,-6.03
2022-12-11T09:03:39.983Z,-5.79
2022-12-11T09:06:08.872Z,-5.57
2022-12-11T09:08:35.612Z,-5.57
2022-12-11T09:11:12.221Z,-5.01
2022-12-11T09:13:39.852Z,-4.66
2022-12-11T09:16:15.958Z,-4.29
2022-12-11T09:18:44.941Z,-3.93
2022-12-11T09:21:14.240Z,-3.80
2022-12-11T09:23:41.160Z,-3.58
2022-12-11T09:26:11.148Z,-3.43
2022-12-11T09:28:44.333Z,-3.16
2022-12-11T09:31:17.824Z,-3.02
2022-12-11T09:33:45.461Z,-2.85
2022-12-11T09:36:12.537Z,-2.63
2022-12-11T09:38:39.475Z,-2.71
2022-12-11T09:41:21.550Z,-2.47
2022-12-11T09:44:06.668Z,-2.43
2022-12-11T09:46:35.052Z,-2.27
2022-12-11T09:49:03.570Z,-2.44
2022-12-11T09:51:30.302Z,-2.26
2022-12-11T09:54:01.872Z,-1.94
2022-12-11T09:56:33.745Z,-2.09
2022-12-11T09:59:18.580Z,-1.96
2022-12-11T10:02:34.736Z,-1.91
2022-12-11T10:05:19.978Z,-1.83
2022-12-11T10:08:05.366Z,-1.61
2022-12-11T10:10:41.023Z,-1.51
2022-12-11T10:13:38.347Z,-1.71
2022-12-11T10:16:14.192Z,-1.57
2022-12-11T10:18:41.568Z,-1.56
2022-12-11T10:21:09.503Z,-1.41
2022-12-11T10:23:58.780Z,-1.20
2022-12-11T10:26:25.596Z,-1.16
2022-12-11T10:28:52.188Z,-1.10
2022-12-11T10:31:39.501Z,-1.19
2022-12-11T10:34:15.017Z,-1.00
2022-12-11T10:36:43.584Z,-1.02
2022-12-11T10:39:19.668Z,-1.35
2022-12-11T10:41:48.179Z,-1.32
2022-12-11T10:44:32.969Z,-1.50
2022-12-11T10:47:11.953Z,-1.39
2022-12-11T10:49:43.343Z,-1.24
2022-12-11T10:52:21.356Z,-1.10
2022-12-11T10:55:14.734Z,-0.91
2022-12-11T10:57:42.010Z,-1.24
2022-12-11T11:00:26.680Z,-1.08
2022-12-11T11:02:53.714Z,-0.91
2022-12-11T11:05:36.406Z,-0.70
2022-12-11T11:08:19.518Z,-0.64
2022-12-11T11:10:58.994Z,-0.57
2022-12-11T11:13:31.356Z,-0.57
2022-12-11T11:16:06.871Z,-0.65
2022-12-11T11:18:34.785Z,-0.73
2022-12-11T11:21:02.437Z,-0.53
2022-12-11T11:23:29.713Z,-0.88
2022-12-11T11:25:59.577Z,-0.93
2022-12-11T11:28:29.936Z,-0.86
2022-12-11T11:31:04.943Z,-0.89
2022-12-11T11:33:34.277Z,-1.18
2022-12-11T11:36:07.393Z,-1.03
2022-12-11T11:38:36.494Z,-0.98
2022-12-11T11:41:55.341Z,-0.80
2022-12-11T11:44:34.796Z,-1.10
2022-12-11T11:47:11.336Z,-0.95
2022-12-11T11:50:03.639Z,-0.65
2022-12-11T11:53:01.772Z,-0.35
2022-12-11T11:55:53.537Z,-0.31
2022-12-11T11:58:25.325Z,-0.41
2022-12-11T12:00:54.987Z,-0.62
2022-12-11T12:03:24.186Z,-0.44
2022-12-11T12:06:13.541Z,-0.17
2022-12-11T12:08:52.054Z,-0.26
2022-12-11T12:11:45.929Z,-0.23
2022-12-11T12:17:39.626Z,-0.21
2022-12-11T12:20:12.198Z,-0.27
2022-12-11T12:22:51.808Z,-0.28
2022-12-11T12:25:47.480Z,-0.01
2022-12-11T12:28:34.129Z,-0.35
2022-12-11T12:31:35.802Z,-0.51
2022-12-11T12:34:24.162Z,-0.35
2022-12-11T12:37:10.604Z,-0.19
2022-12-11T12:39:43.060Z,-0.35
2022-12-11T12:42:24.573Z,-0.19
2022-12-11T12:44:59.644Z,-0.54
2022-12-11T12:47:31.339Z,-0.43
2022-12-11T12:50:01.321Z,-0.59
2022-12-11T12:52:37.789Z,-0.56
2022-12-11T12:55:32.037Z,-0.54
2022-12-11T12:58:03.048Z,-0.23
2022-12-11T13:00:44.139Z,-0.27
2022-12-11T13:03:22.717Z,-0.26
2022-12-11T13:06:15.740Z,-0.54
2022-12-11T13:08:47.332Z,-0.66
2022-12-11T13:11:17.767Z,-0.57
2022-12-11T13:14:02.043Z,-0.57
2022-12-11T13:16:40.796Z,-0.42
2022-12-11T13:19:35.436Z,-0.69
2022-12-11T13:22:15.022Z,-0.77
2022-12-11T13:24:57.311Z,-0.84
2022-12-11T13:27:27.678Z,-0.74
2022-12-11T13:30:14.447Z,-0.98
2022-12-11T13:32:43.657Z,-0.89
2022-12-11T13:35:17.466Z,-1.00
2022-12-11T13:37:46.674Z,-0.78
2022-12-11T13:40:24.583Z,-0.76
2022-12-11T13:43:04.459Z,-0.75
2022-12-11T13:45:43.233Z,-0.87
2022-12-11T13:48:22.138Z,-1.06
2022-12-11T13:50:50.848Z,-1.15
2022-12-11T13:53:18.960Z,-1.32
2022-12-11T13:55:46.372Z,-1.18
2022-12-11T13:58:20.949Z,-1.29
2022-12-11T14:01:11.125Z,-1.33
2022-12-11T14:03:46.985Z,-1.43
2022-12-11T14:06:18.471Z,-1.29
2022-12-11T14:08:49.483Z,-1.38
2022-12-11T14:11:23.789Z,-1.38
2022-12-11T14:13:50.649Z,-1.37
2022-12-11T14:16:22.935Z,-1.27
2022-12-11T14:18:54.941Z,-1.38
2022-12-11T14:21:24.341Z,-1.44
2022-12-11T14:23:59.946Z,-1.41
2022-12-11T14:26:29.499Z,-1.56
2022-12-11T14:28:56.427Z,-1.60
2022-12-11T14:31:37.595Z,-1.57
2022-12-11T14:34:14.283Z,-1.66
2022-12-11T14:36:42.081Z,-1.81
2022-12-11T14:39:17.028Z,-1.84
2022-12-11T14:41:51.528Z,-1.84
2022-12-11T14:44:21.098Z,-1.86
2022-12-11T14:47:10.551Z,-2.03
2022-12-11T14:49:47.388Z,-2.03
2022-12-11T14:52:19.146Z,-2.18
2022-12-11T14:55:01.413Z,-2.37
2022-12-11T14:57:31.264Z,-2.22
2022-12-11T14:59:58.113Z,-2.23
2022-12-11T15:02:30.116Z,-2.36
2022-12-11T15:05:12.778Z,-2.41
2022-12-11T15:07:42.413Z,-2.58
2022-12-11T15:10:22.228Z,-2.68
2022-12-11T15:12:48.973Z,-2.63
2022-12-11T15:15:17.832Z,-2.83
2022-12-11T15:17:51.142Z,-2.79
2022-12-11T15:20:26.164Z,-3.06
2022-12-11T15:22:53.488Z,-3.08
2022-12-11T15:25:28.318Z,-3.48
2022-12-11T15:27:57.758Z,-3.70
2022-12-11T15:30:29.074Z,-3.75
2022-12-11T15:33:04.895Z,-4.33
2022-12-11T15:35:31.504Z,-4.83
2022-12-11T15:37:59.180Z,-4.80
2022-12-11T15:40:26.958Z,-5.09
2022-12-11T15:42:55.024Z,-5.31
2022-12-11T15:45:24.694Z,-4.98
2022-12-11T15:47:52.093Z,-4.95
2022-12-11T15:50:24.471Z,-5.17
2022-12-11T15:52:53.196Z,-5.29
2022-12-11T15:55:21.025Z,-5.46
2022-12-11T15:57:54.512Z,-5.87
2022-12-11T16:00:22.229Z,-5.81
2022-12-11T16:02:48.807Z,-6.10
2022-12-11T16:05:15.691Z,-6.26
2022-12-11T16:07:42.278Z,-6.26
2022-12-11T16:10:15.773Z,-6.32
2022-12-11T16:12:43.443Z,-6.27
2022-12-11T16:15:13.728Z,-6.45
2022-12-11T16:17:42.556Z,-6.57
2022-12-11T16:20:10.685Z,-6.60
2022-12-11T16:22:37.737Z,-6.67
2022-12-11T16:25:04.746Z,-6.68
2022-12-11T16:27:31.439Z,-6.94
2022-12-11T16:29:58.112Z,-6.99
2022-12-11T16:32:24.703Z,-7.18
2022-12-11T16:34:51.316Z,-6.98
2022-12-11T16:37:17.957Z,-7.41
2022-12-11T16:39:46.170Z,-7.46
2022-12-11T16:42:12.767Z,-7.26
2022-12-11T16:44:43.890Z,-7.35
2022-12-11T16:47:10.871Z,-7.34
2022-12-11T16:49:37.419Z,-7.20
2022-12-11T16:52:04.082Z,-7.19
2022-12-11T16:54:30.884Z,-7.14
2022-12-11T16:56:57.403Z,-7.29
2022-12-11T16:59:24.025Z,-7.29
2022-12-11T17:01:50.786Z,-7.26
2022-12-11T17:04:17.449Z,-7.39
2022-12-11T17:06:44.052Z,-7.36
2022-12-11T17:09:11.651Z,-7.39
2022-12-11T17:11:38.213Z,-7.31
2022-12-11T17:14:04.784Z,-7.43
2022-12-11T17:16:32.415Z,-7.55
2022-12-11T17:18:59.127Z,-7.28
2022-12-11T17:21:25.854Z,-7.53
2022-12-11T17:23:52.626Z,-7.54
2022-12-11T17:26:20.241Z,-7.68
2022-12-11T17:28:47.050Z,-7.59
2022-12-11T17:31:17.263Z,-7.54
2022-12-11T17:33:45.620Z,-7.50
2022-12-11T17:36:18.431Z,-7.59
2022-12-11T17:38:45.501Z,-7.61
2022-12-11T17:41:20.047Z,-7.65
2022-12-11T17:43:51.435Z,-7.37
2022-12-11T17:46:18.999Z,-7.17
2022-12-11T17:48:45.708Z,-7.16
2022-12-11T17:51:14.719Z,-7.16
2022-12-11T17:53:41.248Z,-7.21
2022-12-11T17:56:08.416Z,-7.11
2022-12-11T17:58:35.468Z,-7.28
2022-12-11T18:01:07.634Z,-6.98
2022-12-11T18:03:35.046Z,-7.19
2022-12-11T18:06:06.086Z,-7.01
2022-12-11T18:08:32.727Z,-7.32
2022-12-11T18:11:25.695Z,-7.09
2022-12-11T18:13:53.404Z,-7.31
2022-12-11T18:16:28.383Z,-7.43
2022-12-11T18:18:56.532Z,-7.35
2022-12-11T18:21:35.125Z,-7.28
2022-12-11T18:24:02.684Z,-7.56
2022-12-11T18:26:29.228Z,-7.20
2022-12-11T18:28:55.802Z,-7.48
2022-12-11T18:31:23.034Z,-7.27
2022-12-11T18:33:50.076Z,-7.30
2022-12-11T18:36:18.381Z,-7.35
2022-12-11T18:38:45.052Z,-7.56
2022-12-11T18:41:13.425Z,-7.55
2022-12-11T18:43:40.906Z,-7.63
2022-12-11T18:46:14.095Z,-7.63
2022-12-11T18:48:42.458Z,-7.56
2022-12-11T18:51:12.173Z,-7.56
2022-12-11T18:53:39.748Z,-7.65
2022-12-11T18:56:15.078Z,-7.59
2022-12-11T18:58:42.195Z,-7.36
2022-12-11T19:01:11.308Z,-7.15
2022-12-11T19:03:38.148Z,-6.91
2022-12-11T19:06:13.466Z,-6.91
2022-12-11T19:08:40.577Z,-6.82
2022-12-11T19:11:07.348Z,-6.43
2022-12-11T19:13:34.973Z,-6.30
2022-12-11T19:16:02.082Z,-6.08
2022-12-11T19:18:28.763Z,-5.98
2022-12-11T19:21:06.451Z,-5.70
2022-12-11T19:23:35.471Z,-5.67
2022-12-11T19:26:02.438Z,-5.29
2022-12-11T19:28:29.262Z,-5.21
2022-12-11T19:30:56.168Z,-5.03
2022-12-11T19:33:22.800Z,-4.94
2022-12-11T19:35:49.325Z,-4.72
2022-12-11T19:38:16.245Z,-4.61
2022-12-11T19:40:44.363Z,-4.55
2022-12-11T19:43:11.203Z,-4.43
2022-12-11T19:45:38.175Z,-4.31
2022-12-11T19:48:05.077Z,-4.18
2022-12-11T19:50:31.733Z,-4.10
2022-12-11T19:52:58.388Z,-3.90
2022-12-11T19:55:24.949Z,-3.94
2022-12-11T19:57:51.518Z,-3.90
2022-12-11T20:00:19.050Z,-3.83
2022-12-11T20:02:45.641Z,-3.89
2022-12-11T20:05:13.182Z,-3.74
2022-12-11T20:07:40.308Z,-3.65
2022-12-11T20:10:07.662Z,-3.66
2022-12-11T20:12:34.290Z,-3.58
2022-12-11T20:15:00.932Z,-3.59
2022-12-11T20:17:27.485Z,-3.55
2022-12-11T20:19:54.094Z,-3.59
2022-12-11T20:22:20.639Z,-3.61
2022-12-11T20:24:47.218Z,-3.44
2022-12-11T20:27:13.825Z,-3.46
2022-12-11T20:29:40.801Z,-3.48
2022-12-11T20:32:07.554Z,-3.49
2022-12-11T20:34:34.329Z,-3.57
2022-12-11T20:37:00.961Z,-3.40
2022-12-11T20:39:27.556Z,-3.50
2022-12-11T20:41:54.240Z,-3.48
2022-12-11T20:44:20.839Z,-3.52
2022-12-11T20:46:47.492Z,-3.50
2022-12-11T20:49:14.115Z,-3.43
2022-12-11T20:51:41.089Z,-3.53
2022-12-11T20:54:07.936Z,-3.63
2022-12-11T20:56:34.639Z,-3.58
2022-12-11T20:59:01.314Z,-3.56
2022-12-11T21:01:30.951Z,-3.53
2022-12-11T21:03:58.939Z,-3.64
2022-12-11T21:06:32.083Z,-3.64
2022-12-11T21:09:00.997Z,-3.61
2022-12-11T21:11:27.875Z,-3.70
2022-12-11T21:13:54.733Z,-3.83
2022-12-11T21:16:21.601Z,-3.93
2022-12-11T21:18:48.598Z,-4.13
2022-12-11T21:21:16.548Z,-4.37
2022-12-11T21:23:43.519Z,-4.41
2022-12-11T21:26:10.962Z,-4.42
2022-12-11T21:28:37.859Z,-4.31
2022-12-11T21:31:07.483Z,-4.17
2022-12-11T21:33:34.908Z,-4.21
2022-12-11T21:36:02.106Z,-4.27
2022-12-11T21:38:29.520Z,-4.25
2022-12-11T21:40:56.632Z,-4.07
2022-12-11T21:43:24.884Z,-4.21
2022-12-11T21:46:01.041Z,-4.30
2022-12-11T21:48:29.052Z,-4.42
2022-12-11T21:50:56.083Z,-4.35
2022-12-11T21:53:22.648Z,-4.28
2022-12-11T21:55:49.371Z,-3.99
2022-12-11T21:58:15.886Z,-3.96
2022-12-11T22:00:42.488Z,-4.01
2022-12-11T22:03:09.194Z,-4.20
2022-12-11T22:05:35.740Z,-4.36
2022-12-11T22:08:03.182Z,-4.21
2022-12-11T22:10:29.856Z,-4.07
2022-12-11T22:12:56.446Z,-4.04
2022-12-11T22:15:23.233Z,-4.25
2022-12-11T22:17:50.307Z,-4.14
2022-12-11T22:20:16.998Z,-4.04
2022-12-11T22:22:43.542Z,-3.97
2022-12-11T22:25:10.531Z,-4.16
2022-12-11T22:27:37.323Z,-4.11
2022-12-11T22:30:04.662Z,-3.98
2022-12-11T22:32:31.352Z,-3.98
2022-12-11T22:34:57.997Z,-4.09
2022-12-11T22:37:25.048Z,-4.13
2022-12-11T22:39:51.693Z,-4.25
2022-12-11T22:42:18.348Z,-4.25
2022-12-11T22:44:45.061Z,-4.05
2022-12-11T22:47:12.160Z,-4.12
2022-12-11T22:49:38.689Z,-3.90
2022-12-11T22:52:05.316Z,-3.78
2022-12-11T22:54:32.233Z,-3.67
2022-12-11T22:56:58.792Z,-3.79
2022-12-11T22:59:25.380Z,-3.71
2022-12-11T23:01:51.921Z,-3.72
2022-12-11T23:04:18.515Z,-3.76
2022-12-11T23:06:45.115Z,-3.75
2022-12-11T23:09:12.313Z,-3.53
2022-12-11T23:11:40.187Z,-3.96
2022-12-11T23:14:09.185Z,-3.96
2022-12-11T23:16:35.926Z,-3.99
2022-12-11T23:19:02.677Z,-4.02
2022-12-11T23:21:29.710Z,-4.08
2022-12-11T23:23:57.067Z,-3.89
2022-12-11T23:26:24.367Z,-3.81
2022-12-11T23:28:50.974Z,-4.07
2022-12-11T23:31:18.320Z,-4.10
2022-12-11T23:33:45.139Z,-3.63
2022-12-11T23:36:12.888Z,-3.75
2022-12-11T23:38:40.726Z,-3.91
2022-12-11T23:41:08.860Z,-3.87
2022-12-11T23:43:36.813Z,-3.67
2022-12-11T23:46:22.056Z,-3.79
2022-12-11T23:48:49.691Z,-3.62
2022-12-11T23:51:19.068Z,-3.45
2022-12-11T23:53:46.422Z,-3.52
2022-12-11T23:56:16.646Z,-3.60
2022-12-11T23:58:43.348Z,-3.55
